Time;durP1;ratioP1;P1;durP2;ratioP2;P2;SDS_P1;SDS_P2;PMS_P1;PMS_P2;Temp;Humidity;BMP_temperature;BMP_pressure;BME280_temperature;BME280_humidity;BME280_pressure;Samples;Min_cycle;Max_cycle;Signal;HPM_P1;HPM_P2
2023/12/12 00:02:20;;;;;;;2.38;1.20;;;22.40;53.80;;;;;;4856669;28;88173;-80
2023/12/12 00:04:46;;;;;;;2.30;0.95;;;22.40;53.90;;;;;;4876613;28;87526;-80
2023/12/12 00:07:12;;;;;;;2.58;0.85;;;22.30;53.80;;;;;;4873673;28;88208;-81
2023/12/12 00:09:37;;;;;;;3.33;1.25;;;22.30;53.80;;;;;;4873128;28;88541;-81
2023/12/12 00:12:03;;;;;;;1.48;0.88;;;22.30;53.90;;;;;;4859538;28;87985;-80
2023/12/12 00:14:29;;;;;;;2.60;1.10;;;22.20;53.90;;;;;;4874631;28;88005;-80
2023/12/12 00:16:54;;;;;;;1.73;0.98;;;22.20;53.80;;;;;;4874493;28;89590;-80
2023/12/12 00:19:20;;;;;;;2.75;1.13;;;22.20;53.80;;;;;;4873855;28;88721;-80
2023/12/12 00:21:46;;;;;;;1.58;0.77;;;22.20;53.80;;;;;;4874768;28;87702;-80
2023/12/12 00:24:11;;;;;;;2.13;1.00;;;22.20;53.90;;;;;;4873795;28;89069;-79
2023/12/12 00:26:37;;;;;;;3.83;1.30;;;22.20;53.80;;;;;;4874397;28;88452;-80
2023/12/12 00:29:03;;;;;;;3.35;1.30;;;22.20;53.90;;;;;;4874777;28;87308;-81
2023/12/12 00:31:28;;;;;;;1.52;0.85;;;22.10;53.90;;;;;;4877032;28;87708;-80
2023/12/12 00:33:54;;;;;;;1.15;0.70;;;22.10;54.00;;;;;;4877251;28;87597;-80
2023/12/12 00:36:20;;;;;;;4.47;1.15;;;22.10;53.90;;;;;;4881674;28;87476;-80
2023/12/12 00:38:45;;;;;;;2.42;1.10;;;22.10;54.00;;;;;;4855941;28;89115;-79
2023/12/12 00:41:11;;;;;;;2.47;1.00;;;22.10;54.00;;;;;;4871965;28;89029;-81
2023/12/12 00:43:40;;;;;;;1.77;1.00;;;22.10;53.90;;;;;;4872808;28;88064;-80
2023/12/12 00:46:06;;;;;;;1.95;1.02;;;22.10;54.00;;;;;;4857388;28;90661;-81
2023/12/12 00:48:31;;;;;;;1.88;1.08;;;22.00;53.90;;;;;;4871435;28;87962;-80
2023/12/12 00:50:57;;;;;;;1.10;0.90;;;22.00;53.80;;;;;;4874428;28;87449;-80
2023/12/12 00:53:22;;;;;;;2.97;1.27;;;22.00;54.00;;;;;;4876699;28;87376;-81
2023/12/12 00:55:48;;;;;;;2.03;0.95;;;22.00;54.00;;;;;;4875530;28;87989;-80
2023/12/12 00:58:14;;;;;;;1.85;0.82;;;22.00;53.80;;;;;;4877447;28;87797;-80
2023/12/12 01:00:39;;;;;;;1.55;0.90;;;22.00;53.90;;;;;;4874621;28;87481;-82
2023/12/12 01:03:05;;;;;;;1.98;1.00;;;21.90;53.90;;;;;;4879974;28;87932;-82
2023/12/12 01:05:30;;;;;;;2.00;1.02;;;21.90;53.80;;;;;;4875552;28;88668;-81
2023/12/12 01:07:56;;;;;;;1.75;0.95;;;21.90;54.00;;;;;;4874061;28;88036;-81
2023/12/12 01:10:22;;;;;;;2.28;1.10;;;21.90;53.90;;;;;;4874687;28;87068;-81
2023/12/12 01:12:47;;;;;;;2.65;1.08;;;21.90;53.90;;;;;;4860736;28;87949;-81
2023/12/12 01:15:13;;;;;;;2.00;0.98;;;21.90;54.00;;;;;;4874128;28;89350;-81
2023/12/12 01:17:39;;;;;;;2.58;1.23;;;21.90;54.60;;;;;;4875267;28;87511;-81
2023/12/12 01:20:07;;;;;;;1.08;0.65;;;21.90;53.80;;;;;;4872211;28;88420;-81
2023/12/12 01:22:33;;;;;;;2.30;0.95;;;21.80;53.80;;;;;;4874308;28;86934;-81
2023/12/12 01:24:59;;;;;;;1.58;1.15;;;21.80;53.90;;;;;;4872170;28;88241;-82
2023/12/12 01:27:24;;;;;;;2.00;1.10;;;21.80;54.20;;;;;;4877875;28;87924;-81
2023/12/12 01:29:50;;;;;;;1.95;0.93;;;21.80;54.00;;;;;;4873104;28;88488;-82
2023/12/12 01:32:16;;;;;;;1.48;0.73;;;21.80;54.20;;;;;;4854286;28;88282;-81
2023/12/12 01:34:41;;;;;;;10.30;1.35;;;21.80;54.10;;;;;;4878856;28;87734;-81
2023/12/12 01:37:07;;;;;;;2.65;1.50;;;21.70;54.00;;;;;;4856863;28;89682;-82
2023/12/12 01:39:33;;;;;;;2.47;0.95;;;21.70;53.90;;;;;;4872878;28;88084;-81
2023/12/12 01:41:58;;;;;;;2.53;1.30;;;21.70;53.90;;;;;;4878344;28;87294;-81
2023/12/12 01:44:24;;;;;;;1.40;0.85;;;21.70;54.00;;;;;;4878134;28;88325;-82
2023/12/12 01:46:51;;;;;;;2.08;1.23;;;21.70;54.10;;;;;;4870224;28;87216;-81
2023/12/12 01:49:17;;;;;;;2.45;0.95;;;21.60;53.90;;;;;;4874348;28;87885;-81
2023/12/12 01:51:45;;;;;;;1.42;1.05;;;21.70;54.10;;;;;;4874885;28;87460;-82
2023/12/12 01:54:12;;;;;;;2.38;1.20;;;21.60;53.90;;;;;;4871325;28;89170;-81
2023/12/12 01:56:39;;;;;;;2.08;1.15;;;21.70;53.90;;;;;;4874045;28;89259;-83
2023/12/12 01:59:05;;;;;;;2.03;0.95;;;21.60;53.90;;;;;;4872825;28;87651;-81
2023/12/12 02:01:31;;;;;;;4.60;1.63;;;21.60;54.00;;;;;;4875014;28;87687;-81
2023/12/12 02:03:58;;;;;;;2.50;0.90;;;21.60;54.00;;;;;;4874068;28;87653;-81
2023/12/12 02:06:24;;;;;;;1.77;1.08;;;21.60;54.10;;;;;;4878254;28;88304;-81
2023/12/12 02:08:52;;;;;;;1.38;1.00;;;21.60;54.10;;;;;;4875133;28;87910;-81
2023/12/12 02:11:18;;;;;;;1.77;0.88;;;21.60;53.90;;;;;;4877408;28;88039;-81
2023/12/12 02:13:44;;;;;;;1.77;1.00;;;21.60;53.90;;;;;;4873957;28;88136;-81
2023/12/12 02:16:12;;;;;;;1.80;0.93;;;21.60;54.00;;;;;;4872785;28;88158;-82
2023/12/12 02:18:37;;;;;;;0.77;0.60;;;21.60;54.20;;;;;;4873584;28;88227;-82
2023/12/12 02:21:03;;;;;;;3.17;0.90;;;21.50;54.00;;;;;;4876654;28;87459;-81
2023/12/12 02:23:30;;;;;;;2.47;1.20;;;21.50;54.10;;;;;;4872851;28;88765;-81
2023/12/12 02:25:56;;;;;;;1.98;1.10;;;21.50;54.10;;;;;;4872044;28;89207;-83
2023/12/12 02:28:22;;;;;;;1.38;1.10;;;21.50;54.20;;;;;;4872880;28;87826;-81
2023/12/12 02:30:48;;;;;;;1.10;0.68;;;21.50;54.00;;;;;;4871956;28;87431;-82
2023/12/12 02:33:14;;;;;;;2.45;1.00;;;21.50;54.00;;;;;;4871877;28;88703;-81
2023/12/12 02:35:40;;;;;;;1.13;0.82;;;21.50;54.00;;;;;;4870996;28;87324;-81
2023/12/12 02:38:05;;;;;;;1.67;1.05;;;21.50;54.10;;;;;;4877672;28;87895;-82
2023/12/12 02:40:31;;;;;;;1.40;0.82;;;21.50;54.00;;;;;;4873135;28;87679;-81
2023/12/12 02:42:57;;;;;;;1.90;1.05;;;21.50;54.00;;;;;;4878395;28;89147;-82
2023/12/12 02:45:23;;;;;;;1.60;0.82;;;21.50;54.00;;;;;;4880048;28;88866;-81
2023/12/12 02:47:48;;;;;;;2.70;0.85;;;21.40;54.10;;;;;;4854195;28;87163;-81
2023/12/12 02:50:14;;;;;;;1.83;1.13;;;21.40;54.10;;;;;;4873461;28;90179;-82
2023/12/12 02:52:40;;;;;;;2.33;1.20;;;21.40;54.00;;;;;;4876075;28;88405;-81
2023/12/12 02:55:06;;;;;;;2.15;0.93;;;21.40;54.10;;;;;;4878903;28;88373;-82
2023/12/12 02:57:31;;;;;;;0.82;0.75;;;21.40;54.10;;;;;;4877887;28;87093;-81
2023/12/12 02:59:57;;;;;;;1.50;0.75;;;21.40;54.10;;;;;;4857422;28;88253;-82
2023/12/12 03:02:23;;;;;;;2.35;1.02;;;21.40;54.20;;;;;;4877992;28;88076;-82
2023/12/12 03:04:48;;;;;;;0.95;0.60;;;21.40;54.20;;;;;;4875685;28;86974;-82
2023/12/12 03:07:14;;;;;;;3.38;1.00;;;21.30;54.10;;;;;;4873860;28;88742;-83
2023/12/12 03:09:40;;;;;;;3.00;1.00;;;21.30;54.00;;;;;;4878049;28;87724;-81
2023/12/12 03:12:06;;;;;;;1.30;0.82;;;21.30;54.10;;;;;;4878587;28;87789;-82
2023/12/12 03:14:33;;;;;;;1.95;0.80;;;21.30;53.90;;;;;;4877998;28;88305;-82
2023/12/12 03:16:59;;;;;;;1.67;0.90;;;21.30;53.80;;;;;;4873838;28;87413;-82
2023/12/12 03:19:25;;;;;;;1.52;0.93;;;21.30;53.90;;;;;;4878398;28;88063;-82
2023/12/12 03:21:51;;;;;;;1.45;0.95;;;21.30;53.70;;;;;;4873757;28;88091;-81
2023/12/12 03:24:17;;;;;;;2.10;1.05;;;21.30;53.80;;;;;;4877759;28;88229;-81
2023/12/12 03:26:43;;;;;;;2.17;1.00;;;21.30;53.90;;;;;;4878229;28;87853;-82
2023/12/12 03:29:09;;;;;;;1.55;0.88;;;21.30;53.90;;;;;;4877048;28;87470;-81
2023/12/12 03:31:35;;;;;;;2.25;1.00;;;21.30;53.90;;;;;;4874887;28;89629;-81
2023/12/12 03:34:01;;;;;;;2.25;1.00;;;21.30;53.80;;;;;;4877187;28;88737;-81
2023/12/12 03:36:26;;;;;;;1.23;1.00;;;21.30;53.90;;;;;;4861739;28;87747;-81
2023/12/12 03:38:52;;;;;;;2.28;1.02;;;21.30;53.90;;;;;;4874234;28;87447;-82
2023/12/12 03:41:18;;;;;;;2.15;0.80;;;21.30;53.90;;;;;;4877315;28;87672;-81
2023/12/12 03:43:43;;;;;;;1.58;0.70;;;21.30;54.00;;;;;;4872687;28;87677;-82
2023/12/12 03:46:13;;;;;;;1.65;0.77;;;21.20;53.90;;;;;;4875055;28;88388;-81
2023/12/12 03:48:38;;;;;;;;;;;21.20;53.90;;;;;;4875553;28;87864;-81
2023/12/12 03:51:07;;;;;;;1.92;0.85;;;21.20;54.40;;;;;;4879053;28;88562;-81
2023/12/12 03:53:32;;;;;;;1.42;0.95;;;21.20;53.70;;;;;;4877101;28;88273;-82
2023/12/12 03:55:58;;;;;;;2.33;0.88;;;21.20;53.80;;;;;;4875900;28;88223;-84
2023/12/12 03:58:24;;;;;;;1.55;0.85;;;21.20;53.70;;;;;;4857861;28;87790;-81
2023/12/12 04:00:50;;;;;;;1.70;0.90;;;21.20;53.60;;;;;;4879277;28;88200;-81
2023/12/12 04:03:15;;;;;;;3.05;1.10;;;21.20;53.80;;;;;;4857479;28;88254;-82
2023/12/12 04:05:42;;;;;;;2.83;1.00;;;21.20;53.90;;;;;;4872063;28;87663;-84
2023/12/12 04:08:08;;;;;;;1.88;1.13;;;21.20;53.80;;;;;;4870465;28;87934;-85
2023/12/12 04:10:34;;;;;;;3.25;1.02;;;21.20;54.00;;;;;;4848598;28;91038;-83
2023/12/12 04:12:59;;;;;;;2.13;1.05;;;21.20;53.90;;;;;;4878568;28;87956;-84
2023/12/12 04:15:25;;;;;;;3.63;0.93;;;21.20;54.10;;;;;;4872918;28;87910;-84
2023/12/12 04:17:51;;;;;;;3.85;1.15;;;21.10;54.00;;;;;;4870194;28;87837;-85
2023/12/12 04:20:16;;;;;;;1.60;1.05;;;21.10;54.00;;;;;;4870999;28;88866;-84
2023/12/12 04:22:42;;;;;;;2.15;0.80;;;21.10;54.00;;;;;;4867600;28;88120;-85
2023/12/12 04:25:08;;;;;;;2.15;1.00;;;21.10;54.10;;;;;;4869312;28;87556;-84
2023/12/12 04:27:33;;;;;;;1.70;1.02;;;21.20;54.30;;;;;;4869096;28;87602;-84
2023/12/12 04:29:59;;;;;;;3.08;1.20;;;21.10;54.30;;;;;;4873191;28;87102;-85
2023/12/12 04:32:25;;;;;;;1.85;1.20;;;21.10;54.40;;;;;;4870846;28;87917;-84
2023/12/12 04:34:51;;;;;;;2.17;0.93;;;21.10;54.20;;;;;;4873255;28;87919;-85
2023/12/12 04:37:16;;;;;;;2.03;0.90;;;21.10;54.30;;;;;;4872063;28;88473;-85
2023/12/12 04:39:42;;;;;;;2.67;1.20;;;21.10;54.30;;;;;;4869171;28;88846;-85
2023/12/12 04:42:08;;;;;;;4.00;0.88;;;21.20;54.40;;;;;;4878752;28;88094;-84
2023/12/12 04:44:33;;;;;;;1.50;0.93;;;21.10;54.50;;;;;;4852460;28;88568;-84
2023/12/12 04:46:59;;;;;;;2.22;0.98;;;21.20;54.30;;;;;;4868791;28;87411;-84
2023/12/12 04:49:25;;;;;;;2.28;0.85;;;21.20;54.30;;;;;;4868125;28;94957;-84
2023/12/12 04:51:51;;;;;;;2.50;1.00;;;21.20;54.50;;;;;;4853243;28;89826;-81
2023/12/12 04:54:16;;;;;;;2.70;0.98;;;21.20;54.40;;;;;;4869076;28;88004;-83
2023/12/12 04:56:42;;;;;;;1.25;0.82;;;21.20;54.50;;;;;;4867259;28;87497;-84
2023/12/12 04:59:07;;;;;;;2.42;1.15;;;21.20;54.40;;;;;;4863535;28;87772;-86
2023/12/12 05:01:33;;;;;;;2.10;0.88;;;21.20;54.20;;;;;;4851063;28;88467;-85
2023/12/12 05:04:00;;;;;;;4.40;1.05;;;21.20;54.40;;;;;;4869182;28;87329;-84
2023/12/12 05:06:25;;;;;;;2.08;1.00;;;21.20;54.30;;;;;;4869737;28;87431;-84
2023/12/12 05:08:51;;;;;;;1.70;1.13;;;21.20;54.10;;;;;;4867627;28;88806;-85
2023/12/12 05:11:17;;;;;;;3.17;1.33;;;21.20;54.40;;;;;;4869258;28;89776;-86
2023/12/12 05:13:43;;;;;;;1.85;0.80;;;21.20;54.20;;;;;;4873465;28;87073;-85
2023/12/12 05:16:09;;;;;;;2.20;1.08;;;21.30;54.30;;;;;;4854122;28;89419;-85
2023/12/12 05:18:35;;;;;;;1.17;0.70;;;21.30;54.40;;;;;;4868655;28;87515;-81
2023/12/12 05:21:02;;;;;;;1.55;0.93;;;21.30;54.40;;;;;;4867504;28;87753;-81
2023/12/12 05:23:27;;;;;;;2.95;1.20;;;21.30;53.10;;;;;;4878660;28;88049;-81
2023/12/12 05:25:53;;;;;;;2.92;1.15;;;21.30;53.30;;;;;;4873817;28;87049;-81
2023/12/12 05:28:20;;;;;;;2.10;0.93;;;21.30;53.20;;;;;;4874932;28;87988;-81
2023/12/12 05:30:45;;;;;;;2.88;1.10;;;21.40;53.50;;;;;;4856771;28;88857;-81
2023/12/12 05:33:12;;;;;;;2.03;0.98;;;21.30;53.30;;;;;;4876152;28;88427;-80
2023/12/12 05:35:38;;;;;;;3.40;1.25;;;21.40;53.20;;;;;;4874667;28;88134;-81
2023/12/12 05:38:04;;;;;;;2.78;0.93;;;21.40;53.20;;;;;;4871537;28;88625;-81
2023/12/12 05:40:30;;;;;;;2.08;1.15;;;21.40;53.30;;;;;;4870193;28;88944;-82
2023/12/12 05:42:56;;;;;;;6.35;1.40;;;21.40;53.10;;;;;;4875477;28;87554;-81
2023/12/12 05:45:22;;;;;;;2.45;1.10;;;21.40;53.00;;;;;;4874163;28;87612;-81
2023/12/12 05:47:48;;;;;;;2.80;1.40;;;21.40;52.90;;;;;;4873863;28;88604;-81
2023/12/12 05:50:14;;;;;;;2.97;1.30;;;21.40;52.90;;;;;;4873958;28;89164;-81
2023/12/12 05:52:40;;;;;;;2.75;1.20;;;21.40;53.00;;;;;;4871048;28;87340;-81
2023/12/12 05:55:06;;;;;;;4.15;1.48;;;21.40;52.80;;;;;;4870303;28;87350;-81
2023/12/12 05:57:32;;;;;;;3.22;1.30;;;21.40;52.90;;;;;;4868492;28;89764;-81
2023/12/12 05:59:59;;;;;;;2.08;1.13;;;21.40;52.80;;;;;;4874928;28;88413;-81
2023/12/12 06:02:25;;;;;;;1.85;1.05;;;21.40;52.80;;;;;;4873377;28;87393;-81
2023/12/12 06:04:50;;;;;;;4.28;1.70;;;21.40;52.80;;;;;;4873737;28;87703;-81
2023/12/12 06:07:17;;;;;;;2.20;1.38;;;21.40;52.80;;;;;;4871477;28;88169;-81
2023/12/12 06:09:43;;;;;;;4.28;1.38;;;21.40;52.70;;;;;;4877382;28;87828;-81
2023/12/12 06:12:08;;;;;;;1.35;0.90;;;21.30;52.80;;;;;;4873646;28;87793;-81
2023/12/12 06:14:35;;;;;;;1.55;0.75;;;21.40;52.70;;;;;;4874444;28;86589;-81
2023/12/12 06:17:02;;;;;;;1.17;0.98;;;21.30;52.70;;;;;;4871350;28;88586;-81
2023/12/12 06:19:28;;;;;;;2.00;1.20;;;21.30;52.60;;;;;;4873871;28;88015;-81
2023/12/12 06:21:54;;;;;;;3.03;1.25;;;21.30;52.60;;;;;;4872126;28;88338;-81
2023/12/12 06:24:20;;;;;;;2.38;1.13;;;21.30;52.60;;;;;;4873925;28;87691;-80
2023/12/12 06:26:46;;;;;;;3.72;1.52;;;21.30;52.70;;;;;;4871782;28;87860;-81
2023/12/12 06:29:13;;;;;;;3.55;1.05;;;21.30;52.70;;;;;;4875893;28;87890;-81
2023/12/12 06:31:39;;;;;;;5.40;1.33;;;21.30;52.70;;;;;;4874488;28;87011;-81
2023/12/12 06:34:06;;;;;;;3.15;1.10;;;21.30;52.60;;;;;;4873758;28;87818;-82
2023/12/12 06:36:31;;;;;;;2.75;1.20;;;21.30;52.60;;;;;;4871895;28;88806;-81
2023/12/12 06:38:57;;;;;;;1.77;0.93;;;21.20;52.70;;;;;;4877703;28;87313;-81
2023/12/12 06:41:23;;;;;;;1.75;0.88;;;21.20;52.60;;;;;;4871660;28;87338;-82
2023/12/12 06:43:49;;;;;;;2.55;1.25;;;21.20;52.40;;;;;;4872536;28;88024;-81
2023/12/12 06:46:18;;;;;;;2.25;1.13;;;21.20;52.50;;;;;;4874570;28;88606;-81
2023/12/12 06:48:44;;;;;;;2.95;1.20;;;21.20;53.10;;;;;;4873798;28;88581;-81
2023/12/12 06:51:09;;;;;;;1.35;1.00;;;21.20;53.10;;;;;;4874924;28;87097;-81
2023/12/12 06:53:36;;;;;;;2.30;1.10;;;21.20;52.90;;;;;;4873251;28;88033;-82
2023/12/12 06:56:02;;;;;;;2.58;1.20;;;21.20;53.10;;;;;;4842776;28;87904;-81
2023/12/12 06:58:28;;;;;;;2.15;1.00;;;21.10;53.00;;;;;;4872482;28;88019;-81
2023/12/12 07:00:54;;;;;;;4.90;1.45;;;21.10;53.10;;;;;;4872905;28;88081;-81
2023/12/12 07:03:21;;;;;;;2.88;1.13;;;21.10;53.10;;;;;;4856731;28;87340;-81
2023/12/12 07:05:51;;;;;;;3.05;1.50;;;21.10;53.30;;;;;;4875215;28;88710;-81
2023/12/12 07:08:18;;;;;;;1.75;0.93;;;21.10;53.20;;;;;;4879020;28;88496;-81
2023/12/12 07:10:44;;;;;;;2.85;1.40;;;21.10;53.00;;;;;;4874806;28;88424;-81
2023/12/12 07:13:09;;;;;;;1.65;1.05;;;21.10;53.20;;;;;;4871400;28;87582;-81
2023/12/12 07:15:35;;;;;;;4.13;1.60;;;21.00;53.00;;;;;;4872653;28;88840;-79
2023/12/12 07:18:01;;;;;;;2.15;1.23;;;21.00;53.00;;;;;;4872342;28;88112;-81
2023/12/12 07:20:26;;;;;;;3.67;1.20;;;21.00;53.10;;;;;;4873409;28;87405;-81
2023/12/12 07:22:52;;;;;;;2.08;1.17;;;21.00;53.10;;;;;;4875601;28;88374;-81
2023/12/12 07:25:20;;;;;;;1.65;0.80;;;21.00;53.20;;;;;;4873837;28;89228;-81
2023/12/12 07:27:46;;;;;;;2.17;0.90;;;21.00;53.20;;;;;;4871600;28;88952;-81
2023/12/12 07:30:12;;;;;;;2.30;0.90;;;21.00;53.30;;;;;;4876423;28;87571;-81
2023/12/12 07:32:38;;;;;;;2.05;1.20;;;21.00;53.20;;;;;;4875975;28;88140;-81
2023/12/12 07:35:04;;;;;;;3.28;1.85;;;20.90;53.10;;;;;;4875780;28;89761;-79
2023/12/12 07:37:30;;;;;;;2.55;1.15;;;21.00;53.40;;;;;;4840547;28;91211;-81
2023/12/12 07:39:56;;;;;;;2.28;0.90;;;20.90;53.20;;;;;;4877820;28;88185;-81
2023/12/12 07:42:22;;;;;;;1.80;1.08;;;20.90;53.20;;;;;;4874624;28;87722;-82
2023/12/12 07:44:47;;;;;;;2.10;0.80;;;20.80;53.20;;;;;;4876916;28;87735;-83
2023/12/12 07:47:13;;;;;;;1.67;0.98;;;20.90;53.30;;;;;;4875505;28;88929;-81
2023/12/12 07:49:39;;;;;;;1.38;0.80;;;20.90;53.30;;;;;;4862707;28;87619;-81
2023/12/12 07:52:05;;;;;;;3.83;1.23;;;20.80;53.20;;;;;;4874142;28;87452;-81
2023/12/12 07:54:31;;;;;;;3.05;1.08;;;20.90;53.40;;;;;;4873593;28;88017;-80
2023/12/12 07:56:56;;;;;;;1.70;0.93;;;20.80;53.40;;;;;;4878490;28;88240;-82
2023/12/12 07:59:22;;;;;;;6.68;1.10;;;20.80;53.60;;;;;;4875298;28;88324;-82
2023/12/12 08:01:48;;;;;;;2.95;1.30;;;20.90;53.70;;;;;;4875251;28;87573;-83
2023/12/12 08:04:13;;;;;;;2.13;1.33;;;20.90;53.80;;;;;;4877528;28;87835;-81
2023/12/12 08:06:39;;;;;;;1.73;0.82;;;20.90;53.70;;;;;;4875573;28;87872;-81
2023/12/12 08:09:07;;;;;;;2.33;1.13;;;21.00;53.70;;;;;;4873556;28;87867;-82
2023/12/12 08:11:32;;;;;;;2.22;1.30;;;21.00;53.90;;;;;;4875067;28;87258;-85
2023/12/12 08:13:59;;;;;;;5.18;1.02;;;21.00;54.20;;;;;;4876488;28;88586;-83
2023/12/12 08:16:25;;;;;;;2.08;1.08;;;21.10;54.10;;;;;;4876165;28;88722;-83
2023/12/12 08:18:51;;;;;;;1.10;0.90;;;21.10;54.20;;;;;;4875733;28;86951;-85
2023/12/12 08:21:17;;;;;;;2.67;1.08;;;21.10;54.20;;;;;;4876561;28;87805;-83
2023/12/12 08:23:44;;;;;;;6.63;1.40;;;21.10;54.20;;;;;;4854089;28;90223;-82
2023/12/12 08:26:12;;;;;;;3.08;1.00;;;21.20;54.20;;;;;;4876764;28;89228;-82
2023/12/12 08:28:38;;;;;;;3.45;1.10;;;21.20;54.10;;;;;;4845267;28;87765;-82
2023/12/12 08:31:05;;;;;;;2.30;1.10;;;21.20;54.70;;;;;;4874080;28;87423;-80
2023/12/12 08:33:33;;;;;;;2.72;1.30;;;21.20;54.50;;;;;;4875496;28;88918;-80
2023/12/12 08:36:00;;;;;;;3.70;0.93;;;21.20;54.70;;;;;;4877212;28;87557;-80
2023/12/12 08:38:25;;;;;;;2.40;1.15;;;21.20;54.50;;;;;;4875187;28;87719;-80
2023/12/12 08:40:51;;;;;;;1.83;1.00;;;21.20;54.60;;;;;;4875715;28;89676;-81
2023/12/12 08:43:17;;;;;;;3.80;1.25;;;21.20;54.60;;;;;;4873840;28;89567;-82
2023/12/12 08:45:45;;;;;;;4.07;1.25;;;21.20;54.70;;;;;;4875106;28;87995;-82
2023/12/12 08:48:12;;;;;;;2.20;0.85;;;21.20;54.40;;;;;;4875983;28;89097;-83
2023/12/12 08:50:37;;;;;;;12.63;3.33;;;21.20;54.50;;;;;;4874746;28;87610;-83
2023/12/12 08:53:03;;;;;;;43.90;8.30;;;21.30;54.60;;;;;;4874737;28;88274;-85
2023/12/12 08:55:29;;;;;;;28.83;5.97;;;21.30;53.90;;;;;;4856939;28;88746;-85
2023/12/12 08:57:55;;;;;;;10.43;2.40;;;21.30;54.30;;;;;;4858961;28;87641;-84
2023/12/12 09:00:21;;;;;;;18.13;3.65;;;21.30;54.60;;;;;;4878313;28;90714;-84
2023/12/12 09:02:47;;;;;;;13.38;2.58;;;21.30;54.50;;;;;;4858707;28;90082;-84
2023/12/12 09:05:13;;;;;;;11.40;2.67;;;21.20;54.40;;;;;;4872631;28;89077;-84
2023/12/12 09:07:40;;;;;;;9.65;2.53;;;21.20;54.50;;;;;;4875759;28;87022;-84
2023/12/12 09:10:07;;;;;;;13.07;2.50;;;21.20;54.50;;;;;;4859329;28;90080;-84
2023/12/12 09:12:33;;;;;;;11.50;2.78;;;21.20;54.40;;;;;;4857499;28;91504;-84
2023/12/12 09:14:59;;;;;;;12.35;2.92;;;21.30;54.50;;;;;;4875676;28;88051;-84
2023/12/12 09:17:25;;;;;;;8.88;2.75;;;21.30;54.40;;;;;;4873615;28;87153;-83
2023/12/12 09:19:50;;;;;;;11.13;2.80;;;21.30;54.50;;;;;;4873453;28;86882;-82
2023/12/12 09:22:16;;;;;;;13.57;2.10;;;21.30;54.40;;;;;;4875559;28;88284;-83
2023/12/12 09:24:42;;;;;;;8.48;2.13;;;21.30;54.50;;;;;;4857991;28;91904;-83
2023/12/12 09:27:08;;;;;;;7.43;2.25;;;21.30;54.40;;;;;;4874580;28;87473;-83
2023/12/12 09:29:33;;;;;;;7.78;2.63;;;21.30;54.40;;;;;;4877851;28;88274;-83
2023/12/12 09:31:59;;;;;;;9.68;2.35;;;21.30;54.30;;;;;;4878569;28;89107;-83
2023/12/12 09:34:25;;;;;;;7.50;2.30;;;21.30;54.30;;;;;;4864171;28;89098;-83
2023/12/12 09:36:51;;;;;;;9.25;2.45;;;21.30;54.20;;;;;;4876545;28;88924;-83
2023/12/12 09:39:17;;;;;;;6.63;2.17;;;21.30;54.30;;;;;;4863003;28;90492;-83
2023/12/12 09:41:49;;;;;;;4.47;2.17;;;21.30;54.40;;;;;;4859246;28;90148;-83
2023/12/12 09:44:17;;;;;;;9.63;2.58;;;21.30;54.20;;;;;;4876834;28;88280;-83
2023/12/12 09:46:43;;;;;;;11.60;2.63;;;21.30;54.10;;;;;;4876135;28;88240;-83
2023/12/12 09:49:14;;;;;;;10.73;2.78;;;21.30;54.20;;;;;;4874182;28;87393;-83
2023/12/12 09:51:41;;;;;;;7.70;2.38;;;21.30;54.30;;;;;;4873867;28;93805;-83
2023/12/12 09:54:09;;;;;;;6.93;2.25;;;21.30;54.30;;;;;;4876284;28;92331;-82
2023/12/12 09:56:37;;;;;;;7.68;2.50;;;21.30;54.20;;;;;;4857596;28;93254;-84
2023/12/12 09:59:04;;;;;;;5.28;1.90;;;21.30;54.30;;;;;;4855358;28;92557;-83
2023/12/12 10:01:34;;;;;;;5.50;2.03;;;21.30;54.90;;;;;;4872969;28;95330;-82
2023/12/12 10:04:06;;;;;;;6.03;1.92;;;21.30;54.20;;;;;;4839305;28;97135;-82
2023/12/12 10:06:38;;;;;;;5.90;2.10;;;21.30;54.30;;;;;;4871800;28;92642;-82
2023/12/12 10:09:03;;;;;;;8.20;2.33;;;21.30;54.30;;;;;;4873861;28;93318;-82
2023/12/12 10:11:29;;;;;;;4.53;1.80;;;21.30;54.10;;;;;;4870748;28;93673;-81
2023/12/12 10:13:56;;;;;;;7.80;2.63;;;21.40;54.20;;;;;;4872298;28;92899;-82
2023/12/12 10:16:25;;;;;;;6.80;1.67;;;21.30;54.10;;;;;;4872972;28;92483;-82
2023/12/12 10:18:52;;;;;;;6.10;1.65;;;21.40;54.20;;;;;;4873753;28;92124;-84
2023/12/12 10:21:19;;;;;;;6.68;2.30;;;21.40;54.10;;;;;;4872411;28;94407;-82
2023/12/12 10:23:52;;;;;;;5.00;2.35;;;21.40;54.10;;;;;;4872922;28;93474;-83
2023/12/12 10:26:31;;;;;;;4.40;1.85;;;21.40;54.20;;;;;;4851853;28;93361;-82
2023/12/12 10:28:58;;;;;;;6.60;2.58;;;21.40;54.20;;;;;;4855159;28;92765;-83
2023/12/12 10:31:24;;;;;;;6.35;2.10;;;21.30;54.20;;;;;;4874756;28;92980;-83
2023/12/12 10:33:50;;;;;;;6.25;2.05;;;21.30;54.30;;;;;;4853744;28;94322;-82
2023/12/12 10:36:16;;;;;;;5.47;2.00;;;21.30;54.10;;;;;;4876613;28;92929;-82
2023/12/12 10:38:42;;;;;;;6.05;2.03;;;21.30;54.20;;;;;;4874059;28;92650;-84
2023/12/12 10:41:12;;;;;;;6.68;2.65;;;21.30;54.10;;;;;;4864395;28;94522;-85
2023/12/12 10:43:42;;;;;;;4.63;1.52;;;21.40;53.70;;;;;;4860503;28;94840;-83
2023/12/12 10:46:15;;;;;;;5.85;1.70;;;21.40;53.90;;;;;;4854808;28;92672;-85
2023/12/12 10:48:52;;;;;;;5.82;2.08;;;21.50;54.00;;;;;;4875168;28;92691;-84
2023/12/12 10:51:18;;;;;;;5.18;1.58;;;21.60;54.00;;;;;;4852244;28;95013;-83
2023/12/12 10:53:46;;;;;;;6.90;2.25;;;21.70;54.10;;;;;;4851786;28;95478;-82
2023/12/12 10:56:13;;;;;;;9.20;2.28;;;21.80;54.20;;;;;;4849993;28;92814;-86
2023/12/12 10:58:41;;;;;;;6.05;1.70;;;21.80;53.80;;;;;;4868508;28;92711;-85
2023/12/12 11:01:13;;;;;;;7.63;2.17;;;21.90;54.10;;;;;;4869302;28;93986;-86
2023/12/12 11:03:40;;;;;;;6.50;1.85;;;21.90;53.90;;;;;;4854203;28;93108;-81
2023/12/12 11:06:07;;;;;;;10.43;2.22;;;22.00;54.10;;;;;;4873561;28;92182;-83
2023/12/12 11:08:33;;;;;;;9.57;3.20;;;22.10;53.90;;;;;;4839882;28;91706;-84
2023/12/12 11:11:13;;;;;;;6.97;2.42;;;22.10;53.80;;;;;;4852769;28;96542;-84
2023/12/12 11:13:42;;;;;;;4.72;1.70;;;22.10;53.90;;;;;;4855421;28;94843;-85
2023/12/12 11:16:09;;;;;;;7.90;2.10;;;22.20;53.80;;;;;;4854099;28;93708;-85
2023/12/12 11:18:39;;;;;;;6.97;2.22;;;22.20;53.80;;;;;;4873128;28;93104;-85
2023/12/12 11:21:05;;;;;;;5.65;1.90;;;22.20;53.90;;;;;;4878486;28;93746;-85
2023/12/12 11:23:53;;;;;;;6.40;2.15;;;22.20;53.90;;;;;;4873251;28;92760;-85
2023/12/12 11:26:22;;;;;;;5.28;1.90;;;22.20;54.00;;;;;;4842985;28;92172;-86
2023/12/12 11:28:51;;;;;;;13.30;1.90;;;22.30;54.10;;;;;;4859924;28;92425;-88
2023/12/12 11:31:35;;;;;;;5.40;1.92;;;22.30;54.10;;;;;;4874502;28;93264;-83
2023/12/12 11:34:06;;;;;;;5.28;1.63;;;22.30;54.00;;;;;;4872524;28;92924;-83
2023/12/12 11:36:51;;;;;;;6.20;1.80;;;22.40;54.00;;;;;;4872777;28;92889;-88
2023/12/12 11:39:25;;;;;;;6.18;2.22;;;22.30;53.80;;;;;;4857602;28;92542;-83
2023/12/12 11:41:59;;;;;;;3.50;1.42;;;22.40;53.90;;;;;;4857782;28;102254;-82
2023/12/12 11:44:38;;;;;;;5.15;1.52;;;22.40;53.70;;;;;;4855553;28;95605;-83
2023/12/12 11:47:03;;;;;;;;;;;22.40;53.40;;;;;;4872763;28;92612;-82
2023/12/12 11:49:29;;;;;;;4.47;1.70;;;22.40;53.40;;;;;;4854643;28;92738;-83
2023/12/12 11:51:55;;;;;;;5.63;1.90;;;22.40;53.50;;;;;;4853653;28;95069;-84
2023/12/12 11:54:24;;;;;;;5.25;1.95;;;22.40;53.40;;;;;;4856017;28;93443;-83
2023/12/12 11:57:34;;;;;;;6.22;2.10;;;22.40;53.60;;;;;;4857237;28;92551;-84
2023/12/12 12:00:01;;;;;;;3.10;1.45;;;22.40;53.40;;;;;;4859219;28;94082;-83
2023/12/12 12:02:30;;;;;;;4.40;1.52;;;22.50;53.40;;;;;;4870680;28;94186;-83
2023/12/12 12:04:57;;;;;;;2.58;1.20;;;22.50;53.70;;;;;;4869957;28;93076;-87
2023/12/12 12:07:23;;;;;;;4.03;1.60;;;22.50;52.90;;;;;;4859142;28;93637;-86
2023/12/12 12:09:52;;;;;;;5.05;1.70;;;22.50;52.50;;;;;;4876920;28;92403;-87
2023/12/12 12:12:18;;;;;;;5.10;1.85;;;22.40;52.50;;;;;;4872313;28;94230;-84
2023/12/12 12:14:44;;;;;;;7.28;2.05;;;22.50;53.20;;;;;;4869532;28;96147;-85
2023/12/12 12:17:10;;;;;;;4.60;1.50;;;22.50;52.30;;;;;;4871432;28;92644;-85
2023/12/12 12:19:37;;;;;;;4.95;1.50;;;22.50;52.10;;;;;;4874228;28;93039;-87
2023/12/12 12:22:11;;;;;;;4.22;1.38;;;22.50;52.10;;;;;;4873026;28;93412;-85
2023/12/12 12:24:47;;;;;;;4.40;1.50;;;22.50;52.20;;;;;;4870400;28;92962;-86
2023/12/12 12:27:14;;;;;;;4.35;1.55;;;22.50;52.20;;;;;;4877759;28;93125;-85
2023/12/12 12:29:41;;;;;;;5.28;1.73;;;22.60;52.30;;;;;;4853411;28;92540;-85
2023/12/12 12:32:17;;;;;;;4.65;1.40;;;22.60;52.20;;;;;;4868608;28;94278;-86
2023/12/12 12:34:43;;;;;;;4.70;1.65;;;22.60;52.20;;;;;;4841377;28;97014;-86
2023/12/12 12:37:32;;;;;;;6.10;2.13;;;22.60;52.20;;;;;;4877904;28;92484;-83
2023/12/12 12:39:57;;;;;;;3.05;1.52;;;22.60;52.40;;;;;;4873304;28;92575;-83
2023/12/12 12:42:37;;;;;;;2.45;1.38;;;22.60;52.40;;;;;;4872959;28;93670;-85
2023/12/12 12:45:04;;;;;;;4.70;2.08;;;22.60;52.60;;;;;;4873078;28;97949;-83
2023/12/12 12:47:31;;;;;;;5.50;1.80;;;22.70;53.00;;;;;;4856783;28;92080;-84